Time;durP1;ratioP1;P1;durP2;ratioP2;P2;SDS_P1;SDS_P2;PMS_P1;PMS_P2;Temp;Humidity;BMP_temperature;BMP_pressure;BME280_temperature;BME280_humidity;BME280_pressure;Samples;Min_cycle;Max_cycle;Signal;HPM_P1;HPM_P2
2022/08/17 00:01:19;;;;;;;3.00;2.53;;;22.40;74.30;;;;;;5048455;28;20191;-74
2022/08/17 00:03:46;;;;;;;2.03;2.00;;;22.40;74.60;;;;;;5045414;28;20258;-74
2022/08/17 00:06:16;;;;;;;2.22;2.13;;;22.40;74.80;;;;;;5049480;28;21025;-75
2022/08/17 00:08:52;;;;;;;2.28;2.28;;;22.30;74.90;;;;;;5056973;28;20181;-74
2022/08/17 00:11:30;;;;;;;6.32;2.50;;;22.30;74.30;;;;;;5048222;28;20270;-75
2022/08/17 00:14:09;;;;;;;3.50;2.08;;;22.30;74.50;;;;;;5046174;28;20188;-74
2022/08/17 00:16:38;;;;;;;1.73;1.73;;;22.20;74.10;;;;;;5046281;28;20215;-75
2022/08/17 00:19:07;;;;;;;2.58;2.40;;;22.20;74.80;;;;;;5051122;28;20593;-74
2022/08/17 00:21:35;;;;;;;2.80;2.70;;;22.20;75.00;;;;;;5052517;28;20202;-76
2022/08/17 00:24:01;;;;;;;2.85;2.75;;;22.20;74.70;;;;;;5047359;28;20226;-74
2022/08/17 00:26:28;;;;;;;2.60;2.40;;;22.10;75.00;;;;;;5048833;28;20630;-74
2022/08/17 00:28:54;;;;;;;2.47;2.38;;;22.00;74.70;;;;;;5049271;28;20215;-75
2022/08/17 00:31:20;;;;;;;2.75;2.53;;;22.00;74.90;;;;;;5049349;28;20239;-74
2022/08/17 00:33:47;;;;;;;3.25;2.47;;;22.00;74.70;;;;;;5057718;28;20187;-74
2022/08/17 00:36:14;;;;;;;3.28;2.67;;;21.90;74.70;;;;;;5049648;28;20269;-74
2022/08/17 00:38:39;;;;;;;3.10;2.90;;;21.80;74.20;;;;;;5047196;28;20188;-74
2022/08/17 00:41:09;;;;;;;2.67;2.58;;;21.80;74.40;;;;;;5047844;28;20191;-74
2022/08/17 00:43:45;;;;;;;3.05;2.63;;;21.80;74.50;;;;;;5044628;28;20909;-75
2022/08/17 00:46:21;;;;;;;2.90;2.80;;;21.70;75.00;;;;;;5053202;28;20571;-75
2022/08/17 00:48:48;;;;;;;3.55;3.10;;;21.60;74.60;;;;;;5050798;28;20215;-74
2022/08/17 00:51:32;;;;;;;3.42;2.90;;;21.60;74.70;;;;;;5044624;28;20196;-74
2022/08/17 00:54:05;;;;;;;4.50;3.20;;;21.60;74.70;;;;;;5047425;28;20305;-74
2022/08/17 00:56:34;;;;;;;3.55;3.35;;;21.50;74.50;;;;;;5044821;28;20211;-74
2022/08/17 00:59:01;;;;;;;3.17;3.03;;;21.50;76.40;;;;;;5050023;28;20175;-74
2022/08/17 01:01:27;;;;;;;3.53;2.92;;;21.40;75.60;;;;;;5050850;28;20582;-73
2022/08/17 01:03:55;;;;;;;3.28;3.08;;;21.40;75.80;;;;;;5050501;28;20176;-74
2022/08/17 01:06:23;;;;;;;3.10;2.67;;;21.40;76.00;;;;;;5053252;28;20219;-75
2022/08/17 01:08:51;;;;;;;3.30;3.10;;;21.30;76.10;;;;;;5045564;28;20267;-75
2022/08/17 01:11:17;;;;;;;2.90;2.78;;;21.20;75.10;;;;;;5052711;28;20196;-76
2022/08/17 01:13:44;;;;;;;3.13;2.92;;;21.20;75.40;;;;;;5052973;28;20774;-75
2022/08/17 01:16:23;;;;;;;2.67;2.47;;;21.20;75.60;;;;;;5055959;28;20807;-75
2022/08/17 01:18:51;;;;;;;2.80;2.60;;;21.20;75.40;;;;;;5049676;28;20271;-76
2022/08/17 01:21:31;;;;;;;2.83;2.72;;;21.10;75.70;;;;;;5050975;28;20183;-73
2022/08/17 01:23:58;;;;;;;3.50;3.00;;;21.10;75.20;;;;;;5058560;28;20179;-75
2022/08/17 01:26:24;;;;;;;3.47;3.17;;;21.10;75.80;;;;;;5062302;28;20188;-75
2022/08/17 01:28:51;;;;;;;3.20;3.03;;;21.10;76.50;;;;;;5057646;28;20191;-76
2022/08/17 01:31:16;;;;;;;3.05;2.78;;;21.00;76.00;;;;;;5054260;28;20184;-75
2022/08/17 01:33:42;;;;;;;3.40;3.20;;;21.00;76.30;;;;;;5063041;28;20188;-76
2022/08/17 01:36:08;;;;;;;3.67;3.30;;;21.00;77.40;;;;;;5056455;28;20699;-76
2022/08/17 01:38:36;;;;;;;3.65;3.45;;;21.00;78.10;;;;;;5055321;28;20199;-75
2022/08/17 01:41:12;;;;;;;3.22;3.03;;;20.90;76.90;;;;;;5053234;28;20171;-76
2022/08/17 01:43:49;;;;;;;3.60;3.30;;;20.90;77.90;;;;;;5047295;28;20648;-75
2022/08/17 01:46:25;;;;;;;3.45;3.28;;;20.80;76.60;;;;;;5043611;28;20262;-74
2022/08/17 01:48:53;;;;;;;3.28;2.95;;;20.80;77.20;;;;;;5049767;28;20282;-75
2022/08/17 01:51:19;;;;;;;3.63;2.95;;;20.70;77.80;;;;;;5054862;28;20183;-76
2022/08/17 01:53:50;;;;;;;3.63;3.33;;;20.70;79.60;;;;;;5049896;28;20270;-75
2022/08/17 01:56:19;;;;;;;3.00;2.85;;;20.70;78.90;;;;;;5043755;28;20783;-75
2022/08/17 01:58:45;;;;;;;2.95;2.80;;;20.70;78.40;;;;;;5047298;28;20183;-75
2022/08/17 02:01:13;;;;;;;3.20;3.10;;;20.60;78.30;;;;;;5051406;28;20189;-74
2022/08/17 02:03:39;;;;;;;4.63;3.35;;;20.60;78.80;;;;;;5048613;28;20183;-74
2022/08/17 02:06:06;;;;;;;3.15;2.67;;;20.50;78.50;;;;;;5053154;28;20269;-74
2022/08/17 02:08:34;;;;;;;3.63;3.33;;;20.50;77.80;;;;;;5050560;28;20176;-75
2022/08/17 02:11:01;;;;;;;2.75;2.65;;;20.50;78.70;;;;;;5053065;28;20185;-75
2022/08/17 02:13:28;;;;;;;3.28;3.05;;;20.40;78.80;;;;;;5053634;28;20654;-75
2022/08/17 02:15:59;;;;;;;3.40;3.20;;;20.40;79.00;;;;;;5048340;28;20232;-74
2022/08/17 02:18:25;;;;;;;2.92;2.83;;;20.30;78.90;;;;;;5048849;28;20789;-76
2022/08/17 02:20:51;;;;;;;3.65;3.55;;;20.30;79.00;;;;;;5051557;28;20186;-75
2022/08/17 02:23:18;;;;;;;3.03;2.83;;;20.30;79.90;;;;;;5050920;28;20236;-75
2022/08/17 02:25:47;;;;;;;3.08;2.95;;;20.20;79.20;;;;;;5048300;28;20661;-76
2022/08/17 02:28:13;;;;;;;3.28;3.08;;;20.20;79.30;;;;;;5048341;28;20212;-74
2022/08/17 02:30:39;;;;;;;3.10;2.90;;;20.10;78.80;;;;;;5046866;28;20180;-74
2022/08/17 02:33:07;;;;;;;3.80;2.72;;;20.10;79.10;;;;;;5050476;28;20195;-74
2022/08/17 02:35:36;;;;;;;3.15;3.05;;;20.10;79.20;;;;;;5051301;28;20194;-75
2022/08/17 02:38:03;;;;;;;3.65;3.35;;;20.10;79.90;;;;;;5049202;28;20187;-74
2022/08/17 02:40:29;;;;;;;2.95;2.78;;;20.00;80.70;;;;;;5043602;28;20249;-74
2022/08/17 02:42:55;;;;;;;3.47;3.20;;;20.00;79.50;;;;;;5052603;28;20184;-75
2022/08/17 02:45:23;;;;;;;2.92;2.65;;;19.90;79.90;;;;;;5045958;28;20183;-74
2022/08/17 02:47:50;;;;;;;3.30;3.00;;;19.90;79.70;;;;;;5052950;28;20190;-74
2022/08/17 02:50:19;;;;;;;3.45;3.20;;;19.90;80.20;;;;;;5044968;28;20248;-74
2022/08/17 02:52:46;;;;;;;4.53;2.80;;;19.80;79.00;;;;;;5056044;28;20240;-74
2022/08/17 02:55:14;;;;;;;3.28;3.05;;;19.80;78.90;;;;;;5050823;28;20648;-74
2022/08/17 02:57:40;;;;;;;3.92;3.63;;;19.80;80.30;;;;;;5051591;28;20215;-74
2022/08/17 03:00:14;;;;;;;3.47;3.35;;;19.80;80.00;;;;;;5050424;28;20184;-75
2022/08/17 03:02:42;;;;;;;2.85;2.58;;;19.70;79.30;;;;;;5042575;28;20585;-75
2022/08/17 03:05:10;;;;;;;3.83;3.17;;;19.70;79.60;;;;;;5047299;28;21180;-75
2022/08/17 03:07:37;;;;;;;3.42;3.13;;;19.70;79.40;;;;;;5047467;28;20192;-76
2022/08/17 03:10:04;;;;;;;5.28;2.85;;;19.70;79.80;;;;;;5048290;28;20187;-75
2022/08/17 03:12:32;;;;;;;3.03;2.90;;;19.70;79.50;;;;;;5053023;28;20585;-75
2022/08/17 03:15:06;;;;;;;3.42;3.15;;;19.70;80.90;;;;;;5046877;28;20283;-75
2022/08/17 03:17:32;;;;;;;4.05;3.72;;;19.60;79.40;;;;;;5047557;28;21003;-75
2022/08/17 03:19:57;;;;;;;3.33;3.22;;;19.60;79.80;;;;;;5052225;28;20193;-75
2022/08/17 03:22:25;;;;;;;3.28;3.10;;;19.60;79.80;;;;;;5049659;28;20614;-75
2022/08/17 03:24:51;;;;;;;2.97;2.78;;;19.60;80.00;;;;;;5057180;28;20191;-75
2022/08/17 03:27:17;;;;;;;3.60;3.40;;;19.50;80.30;;;;;;5045469;28;20680;-74
2022/08/17 03:29:42;;;;;;;3.50;3.28;;;19.50;80.80;;;;;;5048152;28;20267;-75
2022/08/17 03:32:13;;;;;;;3.00;2.90;;;19.50;81.10;;;;;;5047403;28;20183;-75
2022/08/17 03:34:39;;;;;;;6.80;3.30;;;19.50;80.10;;;;;;5048081;28;20738;-75
2022/08/17 03:37:04;;;;;;;4.57;3.22;;;19.50;80.30;;;;;;5049313;28;20222;-74
2022/08/17 03:39:30;;;;;;;3.15;3.05;;;19.50;82.80;;;;;;5046476;28;20185;-76
2022/08/17 03:42:18;;;;;;;3.47;3.25;;;19.50;83.00;;;;;;5049580;28;20286;-75
2022/08/17 03:44:48;;;;;;;3.72;3.53;;;19.50;81.40;;;;;;5047498;28;20281;-74
2022/08/17 03:58:10;;;;;;;3.63;3.30;;;19.30;81.20;;;;;;5044057;28;20279;-74
2022/08/17 04:00:37;;;;;;;3.58;3.40;;;19.30;81.70;;;;;;5049781;28;20282;-74
2022/08/17 04:03:03;;;;;;;6.30;3.17;;;19.30;82.30;;;;;;5047919;28;20179;-74
2022/08/17 04:05:29;;;;;;;4.97;3.08;;;19.30;82.00;;;;;;5043694;28;20682;-74
2022/08/17 04:07:55;;;;;;;3.40;3.20;;;19.30;82.70;;;;;;5053089;28;20179;-75
2022/08/17 04:10:20;;;;;;;4.00;3.55;;;19.30;82.10;;;;;;5049088;28;20661;-75
2022/08/17 04:12:51;;;;;;;4.03;3.35;;;19.30;82.20;;;;;;5049103;28;20241;-74
2022/08/17 04:15:17;;;;;;;4.22;3.88;;;19.30;82.10;;;;;;5046988;28;20203;-74
2022/08/17 04:17:44;;;;;;;3.22;3.00;;;19.30;82.00;;;;;;5048133;28;20238;-75
2022/08/17 04:20:11;;;;;;;3.42;2.80;;;19.30;82.40;;;;;;5055313;28;20872;-74
2022/08/17 04:22:37;;;;;;;3.38;2.80;;;19.30;82.50;;;;;;5050364;28;20270;-75
2022/08/17 04:25:16;;;;;;;5.20;2.80;;;19.30;83.00;;;;;;5055303;28;20259;-74
2022/08/17 04:27:42;;;;;;;3.25;2.70;;;19.30;81.90;;;;;;5047178;28;20187;-74
2022/08/17 04:30:08;;;;;;;3.55;3.28;;;19.30;83.10;;;;;;5053125;28;20194;-75
2022/08/17 04:33:04;;;;;;;5.68;4.10;;;19.30;82.40;;;;;;5049978;28;20214;-75
2022/08/17 04:35:33;;;;;;;3.63;3.35;;;19.40;82.10;;;;;;5050899;28;20206;-76
2022/08/17 04:37:59;;;;;;;3.45;3.20;;;19.40;82.70;;;;;;5053282;28;20195;-76
2022/08/17 04:43:20;;;;;;;3.97;3.60;;;19.40;82.80;;;;;;5054656;28;20251;-75
2022/08/17 04:45:55;;;;;;;5.28;3.90;;;19.50;82.60;;;;;;5054496;28;20183;-75
2022/08/17 04:48:21;;;;;;;4.57;3.75;;;19.50;82.50;;;;;;5049923;28;20183;-75
2022/08/17 04:50:49;;;;;;;5.72;4.03;;;19.50;82.40;;;;;;5051792;28;20269;-75
2022/08/17 04:53:16;;;;;;;5.63;4.35;;;19.60;82.80;;;;;;5046789;28;20295;-75
2022/08/17 04:55:41;;;;;;;5.93;4.65;;;19.60;82.40;;;;;;5058514;28;20188;-75
2022/08/17 04:58:07;;;;;;;9.10;4.80;;;19.60;82.30;;;;;;5046165;28;20215;-75
2022/08/17 05:00:34;;;;;;;9.40;4.47;;;19.60;82.30;;;;;;5056161;28;20184;-76
2022/08/17 05:03:00;;;;;;;6.60;3.75;;;19.60;82.20;;;;;;5050658;28;20179;-76
2022/08/17 05:05:30;;;;;;;6.70;4.32;;;19.70;83.50;;;;;;5050687;28;20208;-75
2022/08/17 05:07:59;;;;;;;4.68;4.13;;;19.80;83.60;;;;;;5050142;28;20209;-75
2022/08/17 05:10:28;;;;;;;5.10;3.78;;;19.80;83.30;;;;;;5048390;28;20286;-75
2022/08/17 05:12:58;;;;;;;6.13;4.10;;;19.90;83.80;;;;;;5037744;28;20242;-75
2022/08/17 05:15:24;;;;;;;4.10;3.85;;;19.90;83.60;;;;;;5048391;28;20188;-75
2022/08/17 05:17:50;;;;;;;6.25;4.25;;;19.90;83.90;;;;;;5045893;28;20204;-75
2022/08/17 05:20:16;;;;;;;3.80;3.60;;;20.00;83.70;;;;;;5051296;28;20193;-76
2022/08/17 05:22:56;;;;;;;3.78;3.42;;;20.00;83.80;;;;;;5052810;28;20175;-75
2022/08/17 05:25:26;;;;;;;4.07;3.50;;;20.00;82.30;;;;;;5052886;28;20190;-76
2022/08/17 05:27:53;;;;;;;4.40;4.00;;;20.00;83.20;;;;;;5049306;28;20435;-75
2022/08/17 05:30:19;;;;;;;4.05;3.75;;;20.00;83.10;;;;;;5047052;28;20191;-75
2022/08/17 05:32:53;;;;;;;4.05;3.80;;;20.10;83.20;;;;;;5048576;28;20179;-74
2022/08/17 05:35:18;;;;;;;3.60;3.30;;;20.10;82.40;;;;;;5044973;28;20190;-75
2022/08/17 05:37:44;;;;;;;3.55;3.35;;;20.20;82.90;;;;;;5047808;28;20211;-75
2022/08/17 05:40:10;;;;;;;3.83;3.53;;;20.20;82.80;;;;;;5046356;28;20657;-75
2022/08/17 05:42:36;;;;;;;3.70;3.45;;;20.30;82.80;;;;;;5048343;28;20172;-76
2022/08/17 05:45:02;;;;;;;8.52;4.50;;;20.30;82.60;;;;;;5052121;28;20191;-76
2022/08/17 05:47:29;;;;;;;4.00;3.78;;;20.40;83.10;;;;;;5046585;28;20191;-75
2022/08/17 05:49:56;;;;;;;4.45;4.05;;;20.50;82.90;;;;;;5042879;28;20184;-77
2022/08/17 05:52:43;;;;;;;4.28;3.97;;;20.50;82.80;;;;;;5050675;28;20677;-76
2022/08/17 05:55:14;;;;;;;3.53;3.35;;;20.60;82.60;;;;;;5046259;28;20249;-76
2022/08/17 05:57:42;;;;;;;3.53;3.33;;;20.60;82.60;;;;;;5057774;28;20229;-76
2022/08/17 06:00:22;;;;;;;3.92;3.70;;;20.70;82.50;;;;;;5054403;28;20183;-75
2022/08/17 06:03:20;;;;;;;5.32;4.22;;;20.70;82.00;;;;;;5055418;28;20186;-75
2022/08/17 06:05:58;;;;;;;5.03;3.97;;;20.80;82.20;;;;;;5055369;28;20237;-75
2022/08/17 06:08:42;;;;;;;3.58;3.28;;;20.90;81.60;;;;;;5053720;28;20547;-76
2022/08/17 06:11:27;;;;;;;4.15;3.75;;;20.90;82.30;;;;;;5050926;28;20190;-75
2022/08/17 06:14:20;;;;;;;4.00;3.78;;;21.00;81.50;;;;;;5052962;28;20189;-75
2022/08/17 06:16:52;;;;;;;3.75;3.45;;;21.10;81.40;;;;;;5054107;28;20198;-75
2022/08/17 06:19:38;;;;;;;5.15;3.95;;;21.10;81.70;;;;;;5050056;28;20191;-74
2022/08/17 06:22:06;;;;;;;7.75;4.00;;;21.20;81.20;;;;;;5048408;28;20205;-74
2022/08/17 06:24:56;;;;;;;8.23;4.15;;;21.30;81.80;;;;;;5048882;28;20184;-74
2022/08/17 06:27:32;;;;;;;4.10;3.70;;;21.40;81.30;;;;;;5054787;28;20239;-74
2022/08/17 06:30:20;;;;;;;4.30;3.97;;;21.40;81.30;;;;;;5053032;28;20195;-74
2022/08/17 06:32:48;;;;;;;5.45;4.15;;;21.50;81.30;;;;;;5055354;28;20289;-74
2022/08/17 06:35:36;;;;;;;4.40;4.10;;;21.60;81.30;;;;;;5052303;28;20233;-74
2022/08/17 06:38:31;;;;;;;5.13;4.72;;;21.70;81.10;;;;;;5053605;28;20214;-73
2022/08/17 06:41:02;;;;;;;7.28;5.65;;;21.70;80.30;;;;;;5051003;28;20280;-73
2022/08/17 06:43:31;;;;;;;6.43;5.00;;;21.80;80.80;;;;;;5052674;28;21045;-75
2022/08/17 06:46:15;;;;;;;5.25;4.80;;;21.90;81.00;;;;;;5051805;28;20179;-75
2022/08/17 06:49:20;;;;;;;5.50;5.07;;;22.00;80.60;;;;;;5051866;28;20200;-75
2022/08/17 06:52:01;;;;;;;5.65;4.53;;;22.00;80.30;;;;;;5051444;28;20183;-75
2022/08/17 06:54:55;;;;;;;6.25;4.65;;;22.10;80.20;;;;;;5050836;28;20924;-76
2022/08/17 06:57:27;;;;;;;4.43;4.13;;;22.20;80.10;;;;;;5055227;28;20322;-75
2022/08/17 06:59:55;;;;;;;4.65;4.28;;;22.30;79.70;;;;;;5056356;28;20194;-75
2022/08/17 07:02:54;;;;;;;4.35;4.03;;;22.40;79.70;;;;;;5054221;28;20610;-75
2022/08/17 07:05:26;;;;;;;4.82;3.28;;;22.50;79.70;;;;;;5050316;28;20280;-75
2022/08/17 07:08:22;;;;;;;5.20;3.85;;;22.60;79.60;;;;;;5052043;28;20187;-75
2022/08/17 07:10:53;;;;;;;5.68;4.00;;;22.60;79.00;;;;;;5053019;28;20619;-75
2022/08/17 07:13:44;;;;;;;4.60;4.30;;;22.80;79.10;;;;;;5054138;28;20606;-74
2022/08/17 07:16:30;;;;;;;4.88;3.97;;;22.90;78.40;;;;;;5059061;28;20208;-74
2022/08/17 07:18:57;;;;;;;4.07;3.55;;;23.00;79.10;;;;;;5040554;28;20678;-75
2022/08/17 07:22:00;;;;;;;3.90;3.30;;;23.10;79.00;;;;;;5021650;28;20194;-74
2022/08/17 07:24:36;;;;;;;5.35;4.05;;;23.20;79.30;;;;;;5021907;28;20298;-77
2022/08/17 07:27:10;;;;;;;4.40;4.10;;;23.20;78.60;;;;;;5022233;28;20195;-76
2022/08/17 07:29:40;;;;;;;4.13;3.83;;;23.30;78.40;;;;;;5039405;28;20257;-73
2022/08/17 07:32:08;;;;;;;3.85;3.55;;;23.40;78.50;;;;;;5039413;28;20284;-73
2022/08/17 07:35:12;;;;;;;3.28;3.10;;;23.50;78.40;;;;;;5041756;28;20187;-75
2022/08/17 07:37:52;;;;;;;3.85;3.55;;;23.70;78.50;;;;;;4975046;28;20304;-74
2022/08/17 07:40:29;;;;;;;3.42;3.13;;;23.70;77.40;;;;;;4971326;28;20198;-74
2022/08/17 07:43:03;;;;;;;4.55;3.28;;;23.80;78.00;;;;;;4970578;28;20202;-74
2022/08/17 07:48:21;;;;;;;3.45;3.03;;;24.00;77.50;;;;;;4970505;28;20363;-74
2022/08/17 07:50:48;;;;;;;2.80;2.70;;;24.20;76.90;;;;;;4972063;28;20201;-74
2022/08/17 07:53:31;;;;;;;3.53;3.20;;;24.20;77.40;;;;;;4972555;28;20195;-74
2022/08/17 07:55:57;;;;;;;3.28;3.03;;;24.30;76.60;;;;;;4977251;28;20225;-74
2022/08/17 07:58:23;;;;;;;3.00;2.90;;;24.40;76.90;;;;;;4980727;28;20202;-73
2022/08/17 08:01:08;;;;;;;3.45;3.05;;;24.50;76.90;;;;;;4983335;28;20855;-74
2022/08/17 08:03:41;;;;;;;9.32;4.00;;;24.60;76.60;;;;;;4980756;28;20200;-74
2022/08/17 08:06:20;;;;;;;7.03;3.63;;;24.70;76.30;;;;;;4976667;28;20197;-74
2022/08/17 08:08:51;;;;;;;5.60;3.60;;;24.80;75.60;;;;;;5025184;28;20269;-74
2022/08/17 08:11:35;;;;;;;3.63;3.42;;;24.90;75.90;;;;;;5051621;28;20183;-74
2022/08/17 08:14:32;;;;;;;3.40;3.30;;;25.00;75.80;;;;;;5055215;28;20180;-74
2022/08/17 08:17:05;;;;;;;3.33;3.22;;;25.10;75.80;;;;;;5054670;28;20306;-74
2022/08/17 08:19:32;;;;;;;3.63;3.05;;;25.20;75.40;;;;;;5054970;28;20175;-74
2022/08/17 08:22:09;;;;;;;3.38;3.15;;;25.30;75.60;;;;;;5053856;28;20199;-75
2022/08/17 08:24:48;;;;;;;3.88;3.40;;;25.50;73.90;;;;;;5055458;28;20211;-75
2022/08/17 08:27:29;;;;;;;3.28;3.17;;;25.60;73.90;;;;;;5054285;28;20188;-76
2022/08/17 08:30:13;;;;;;;3.55;3.10;;;25.70;73.20;;;;;;5047851;28;20716;-75
2022/08/17 08:32:47;;;;;;;4.90;3.50;;;25.90;73.50;;;;;;5046495;28;20184;-75
2022/08/17 08:35:31;;;;;;;6.80;3.60;;;26.00;72.90;;;;;;5052949;28;20201;-75
2022/08/17 08:38:25;;;;;;;3.35;3.10;;;26.20;72.70;;;;;;5058827;28;20603;-75
2022/08/17 08:41:20;;;;;;;4.05;3.10;;;26.30;71.10;;;;;;5050257;28;20187;-75
2022/08/17 08:43:49;;;;;;;3.17;3.03;;;26.40;71.50;;;;;;5056810;28;20219;-75
2022/08/17 08:46:26;;;;;;;3.25;3.05;;;26.60;70.10;;;;;;5058787;28;20270;-74
2022/08/17 08:49:10;;;;;;;2.42;2.42;;;26.70;70.20;;;;;;5053270;28;20183;-74
2022/08/17 08:51:39;;;;;;;3.60;2.90;;;26.80;70.60;;;;;;5052914;28;20265;-75
2022/08/17 08:54:10;;;;;;;3.00;2.72;;;27.00;70.80;;;;;;5048212;28;20183;-75
2022/08/17 08:56:46;;;;;;;3.53;3.22;;;27.10;71.50;;;;;;5050779;28;20664;-74
2022/08/17 08:59:31;;;;;;;2.85;2.65;;;27.30;70.30;;;;;;5055093;28;20195;-75
2022/08/17 09:02:05;;;;;;;2.17;1.95;;;27.50;70.40;;;;;;5054128;28;20188;-74
2022/08/17 09:04:37;;;;;;;1.92;1.92;;;27.70;68.10;;;;;;5055519;28;20210;-74
2022/08/17 09:07:25;;;;;;;2.58;2.47;;;27.80;66.40;;;;;;5054814;28;20223;-74
2022/08/17 09:10:15;;;;;;;1.90;1.90;;;27.90;68.30;;;;;;5021751;28;20206;-75
2022/08/17 09:13:00;;;;;;;2.00;1.90;;;28.20;65.80;;;;;;5022634;28;20606;-74
2022/08/17 09:15:36;;;;;;;2.70;2.08;;;28.30;64.40;;;;;;5022182;28;20223;-75
2022/08/17 09:18:25;;;;;;;2.35;2.15;;;28.50;65.90;;;;;;5024007;28;20212;-75
2022/08/17 09:21:10;;;;;;;1.73;1.73;;;28.60;63.40;;;;;;5021159;28;20200;-74
2022/08/17 09:23:58;;;;;;;2.00;2.00;;;28.80;64.10;;;;;;5024268;28;20196;-76
2022/08/17 09:26:44;;;;;;;2.85;2.60;;;29.00;63.10;;;;;;5022618;28;20188;-75
2022/08/17 09:29:14;;;;;;;2.20;2.10;;;29.30;62.60;;;;;;5022341;28;20196;-74
2022/08/17 09:32:02;;;;;;;2.90;2.53;;;29.60;61.00;;;;;;5024073;28;20210;-74
2022/08/17 09:34:37;;;;;;;2.13;2.13;;;30.00;59.10;;;;;;5022156;28;20192;-75
2022/08/17 09:37:17;;;;;;;2.08;1.95;;;30.20;59.50;;;;;;5000641;28;20204;-74
2022/08/17 09:39:56;;;;;;;3.80;2.08;;;30.50;58.60;;;;;;5020014;28;20279;-75
2022/08/17 09:42:30;;;;;;;2.47;2.20;;;30.80;58.40;;;;;;5022788;28;20226;-75
2022/08/17 09:45:14;;;;;;;4.78;2.42;;;31.20;56.90;;;;;;5023106;28;20188;-75
2022/08/17 09:47:55;;;;;;;3.38;2.30;;;31.60;56.10;;;;;;5047579;28;20244;-73
2022/08/17 09:50:27;;;;;;;2.15;2.05;;;32.00;57.00;;;;;;5051705;28;20186;-74
2022/08/17 09:52:58;;;;;;;2.00;2.00;;;32.40;58.50;;;;;;5054072;28;20236;-74
2022/08/17 09:56:00;;;;;;;2.05;1.95;;;33.10;55.10;;;;;;5052911;28;20187;-77
2022/08/17 09:58:44;;;;;;;1.80;1.67;;;33.50;52.80;;;;;;5050325;28;20202;-73
2022/08/17 10:01:22;;;;;;;1.80;1.80;;;33.80;51.40;;;;;;5046070;28;20188;-72
2022/08/17 10:04:14;;;;;;;2.25;2.25;;;34.00;51.90;;;;;;5047786;28;20186;-74
2022/08/17 10:06:56;;;;;;;3.72;2.60;;;34.20;53.40;;;;;;5040619;28;20184;-73
2022/08/17 10:09:54;;;;;;;2.53;1.90;;;34.20;51.50;;;;;;5046679;28;20256;-72
2022/08/17 10:12:55;;;;;;;2.42;2.22;;;34.40;52.60;;;;;;5053673;28;20179;-73
2022/08/17 10:15:33;;;;;;;2.28;2.10;;;34.70;55.10;;;;;;5023359;28;20246;-72
2022/08/17 10:18:00;;;;;;;1.95;1.70;;;35.10;50.60;;;;;;5023935;28;20721;-72
2022/08/17 10:20:30;;;;;;;1.55;1.55;;;35.50;50.80;;;;;;5023288;28;20195;-75
2022/08/17 10:26:13;;;;;;;2.28;1.50;;;36.10;49.00;;;;;;5023050;28;20195;-75
2022/08/17 10:28:42;;;;;;;2.10;2.00;;;36.40;51.90;;;;;;5020210;28;20192;-74
2022/08/17 10:31:11;;;;;;;2.55;2.45;;;36.80;52.90;;;;;;5015917;28;20792;-72
2022/08/17 10:33:50;;;;;;;3.10;1.92;;;37.10;47.70;;;;;;5022023;28;20194;-72
2022/08/17 10:36:27;;;;;;;2.33;2.22;;;37.40;49.70;;;;;;5020964;28;20218;-73
2022/08/17 10:39:14;;;;;;;2.35;2.22;;;37.70;51.50;;;;;;5018197;28;20199;-73
2022/08/17 10:41:49;;;;;;;1.83;1.83;;;38.30;46.10;;;;;;5021043;28;20191;-72
2022/08/17 10:44:44;;;;;;;2.10;2.00;;;38.70;47.60;;;;;;5021103;28;20191;-73
2022/08/17 10:47:13;;;;;;;2.00;1.90;;;39.00;47.00;;;;;;5020248;28;20283;-72
2022/08/17 10:49:52;;;;;;;2.90;2.47;;;39.30;45.30;;;;;;5017407;28;20195;-73
2022/08/17 10:52:29;;;;;;;2.50;2.30;;;39.30;46.40;;;;;;5047402;28;20210;-73
2022/08/17 10:54:57;;;;;;;2.17;2.08;;;38.90;45.00;;;;;;5042704;28;20202;-73
2022/08/17 10:57:25;;;;;;;2.75;2.38;;;38.70;46.20;;;;;;5045508;28;20214;-74
2022/08/17 10:59:53;;;;;;;3.53;2.30;;;38.80;48.50;;;;;;5042556;28;20606;-74
2022/08/17 11:02:37;;;;;;;2.20;2.20;;;38.80;45.50;;;;;;5047947;28;20186;-74
2022/08/17 11:05:21;;;;;;;2.00;2.00;;;38.90;45.00;;;;;;5046076;28;20183;-74
2022/08/17 11:08:04;;;;;;;2.03;1.95;;;38.50;45.90;;;;;;5051715;28;20237;-74
2022/08/17 11:10:55;;;;;;;2.80;2.45;;;38.60;45.30;;;;;;5047366;28;20202;-74
2022/08/17 11:14:06;;;;;;;2.65;2.42;;;38.70;47.40;;;;;;5046221;28;20599;-74
2022/08/17 11:17:14;;;;;;;2.92;2.42;;;38.70;44.60;;;;;;5009376;28;20641;-72
2022/08/17 11:19:48;;;;;;;2.15;2.05;;;38.70;44.60;;;;;;5013385;28;20191;-72
2022/08/17 11:23:01;;;;;;;2.33;2.13;;;38.70;45.20;;;;;;5007678;28;20685;-72
2022/08/17 11:25:47;;;;;;;1.88;1.80;;;39.00;46.20;;;;;;4903020;29;20196;-72
2022/08/17 11:28:33;;;;;;;2.47;2.38;;;39.40;45.10;;;;;;4906157;29;20211;-74
2022/08/17 11:31:07;;;;;;;2.45;2.33;;;39.60;44.20;;;;;;4902891;29;20275;-74
2022/08/17 11:33:33;;;;;;;2.28;2.17;;;39.70;47.00;;;;;;4899719;29;20191;-74
2022/08/17 11:36:09;;;;;;;2.35;2.13;;;39.80;46.30;;;;;;4904773;29;20639;-75
2022/08/17 11:38:56;;;;;;;2.40;2.30;;;40.00;47.70;;;;;;4905258;29;20207;-74
2022/08/17 11:41:34;;;;;;;2.45;2.35;;;40.30;46.30;;;;;;4905872;29;20188;-75
2022/08/17 11:44:17;;;;;;;2.60;2.58;;;40.70;46.90;;;;;;4903752;29;20203;-75
2022/08/17 11:52:47;;;;;;;2.97;2.88;;;41.60;47.00;;;;;;4963331;28;20287;-75
2022/08/17 11:55:31;;;;;;;3.65;2.95;;;42.00;45.90;;;;;;4963479;28;20196;-74
2022/08/17 11:58:00;;;;;;;3.13;2.85;;;41.70;46.00;;;;;;5039723;28;20263;-74
2022/08/17 12:00:44;;;;;;;3.25;3.05;;;41.30;47.40;;;;;;5045809;28;20261;-75
2022/08/17 12:03:31;;;;;;;2.97;2.88;;;41.20;47.60;;;;;;5047526;28;20817;-74
2022/08/17 12:06:26;;;;;;;2.83;2.72;;;41.40;47.00;;;;;;5045678;28;20684;-74
2022/08/17 12:09:10;;;;;;;3.05;2.85;;;41.80;47.00;;;;;;5049228;28;20186;-74
2022/08/17 12:11:47;;;;;;;3.40;3.30;;;42.20;46.90;;;;;;5045813;28;20407;-74
2022/08/17 12:14:23;;;;;;;3.60;3.22;;;42.40;47.30;;;;;;5042522;28;20187;-75
2022/08/17 12:16:59;;;;;;;3.13;2.97;;;42.30;46.70;;;;;;5043338;28;20240;-75
2022/08/17 12:19:28;;;;;;;3.13;3.03;;;42.20;46.30;;;;;;5046223;28;20178;-74
2022/08/17 12:22:17;;;;;;;3.00;2.90;;;42.10;46.10;;;;;;5053738;28;20178;-75
2022/08/17 12:24:58;;;;;;;2.83;2.72;;;41.80;46.50;;;;;;5016026;28;20689;-75
2022/08/17 12:27:32;;;;;;;3.15;3.05;;;41.50;47.50;;;;;;5018617;28;20192;-74
2022/08/17 12:30:01;;;;;;;2.58;2.58;;;41.00;49.10;;;;;;5002487;28;21022;-75
2022/08/17 12:32:32;;;;;;;2.92;2.83;;;40.80;47.70;;;;;;5014607;28;20180;-75
2022/08/17 12:34:59;;;;;;;3.25;3.15;;;40.60;47.30;;;;;;5013505;28;20286;-76
2022/08/17 12:37:31;;;;;;;2.97;2.88;;;40.60;47.70;;;;;;5018524;28;20220;-77
2022/08/17 12:40:21;;;;;;;3.10;3.03;;;41.00;46.40;;;;;;5016831;28;20233;-77
2022/08/17 12:43:25;;;;;;;2.40;2.30;;;41.40;45.10;;;;;;4945624;28;20381;-78
2022/08/17 12:46:00;;;;;;;2.65;2.55;;;41.60;44.10;;;;;;4942612;28;20280;-78
2022/08/17 12:48:29;;;;;;;2.83;2.67;;;42.00;44.50;;;;;;4945430;28;20208;-77
2022/08/17 12:51:01;;;;;;;2.40;2.40;;;42.40;45.10;;;;;;4947026;29;20198;-78
2022/08/17 12:53:31;;;;;;;2.70;2.60;;;42.80;42.80;;;;;;4944619;28;20199;-78
2022/08/17 12:55:59;;;;;;;3.10;2.92;;;43.10;43.10;;;;;;4944379;28;20194;-78
2022/08/17 12:58:30;;;;;;;2.78;2.78;;;43.50;44.50;;;;;;4945779;28;20191;-78
2022/08/17 13:01:12;;;;;;;2.53;2.53;;;43.60;43.10;;;;;;4948302;28;20643;-78
2022/08/17 13:03:42;;;;;;;3.25;3.08;;;43.70;45.50;;;;;;4965309;28;20767;-78
2022/08/17 13:06:10;;;;;;;2.80;2.60;;;43.50;43.80;;;;;;4959025;28;20194;-78
2022/08/17 13:08:46;;;;;;;3.88;3.67;;;43.50;45.20;;;;;;4964913;28;20213;-77
2022/08/17 13:11:15;;;;;;;2.53;2.50;;;43.50;43.20;;;;;;4957738;28;20188;-77
2022/08/17 13:13:54;;;;;;;2.38;2.20;;;43.70;43.80;;;;;;4964420;28;20202;-76
2022/08/17 13:16:25;;;;;;;2.45;2.45;;;43.70;42.20;;;;;;4964339;28;20998;-77
2022/08/17 13:19:03;;;;;;;2.58;2.58;;;43.30;42.70;;;;;;4957947;28;20830;-77
2022/08/17 13:21:29;;;;;;;2.38;2.38;;;43.10;42.30;;;;;;5049745;28;20174;-77
2022/08/17 13:24:10;;;;;;;1.95;1.95;;;43.10;43.60;;;;;;5050197;28;20196;-77
2022/08/17 13:26:44;;;;;;;2.60;2.13;;;43.30;42.00;;;;;;5045341;28;20660;-77
2022/08/17 13:29:31;;;;;;;2.25;2.15;;;43.40;42.40;;;;;;5045483;28;20186;-77
2022/08/17 13:32:21;;;;;;;2.40;2.30;;;43.10;42.30;;;;;;5048582;28;20190;-77
2022/08/17 13:34:52;;;;;;;3.33;2.33;;;43.00;42.80;;;;;;5050341;28;20699;-77
2022/08/17 13:37:29;;;;;;;2.17;2.17;;;43.20;46.30;;;;;;5051878;28;20926;-77
2022/08/17 13:40:01;;;;;;;2.92;2.72;;;43.30;41.80;;;;;;5048037;28;20193;-77
2022/08/17 13:42:39;;;;;;;2.35;2.33;;;43.40;41.90;;;;;;5048321;28;20638;-77
2022/08/17 13:45:38;;;;;;;2.58;2.47;;;43.50;41.50;;;;;;5052923;28;20272;-77
2022/08/17 13:48:23;;;;;;;2.53;2.53;;;43.50;41.40;;;;;;5047065;28;20660;-77
2022/08/17 13:50:54;;;;;;;3.92;2.92;;;43.40;41.60;;;;;;5051513;28;20249;-77
2022/08/17 13:53:26;;;;;;;2.70;2.55;;;43.40;42.10;;;;;;5048829;28;20266;-77